sensor_id;sensor_type;location;lat;lon;timestamp;temperature;humidity
10133;DHT22;5106;50.926;7.080;2023-05-14T00:01:33;10.30;84.10
10133;DHT22;5106;50.926;7.080;2023-05-14T00:03:59;10.30;84.10
10133;DHT22;5106;50.926;7.080;2023-05-14T00:06:24;10.20;84.20
10133;DHT22;5106;50.926;7.080;2023-05-14T00:08:50;10.20;84.10
10133;DHT22;5106;50.926;7.080;2023-05-14T00:11:15;10.20;84.00
10133;DHT22;5106;50.926;7.080;2023-05-14T00:13:41;10.10;84.00
10133;DHT22;5106;50.926;7.080;2023-05-14T00:16:06;10.10;84.10
10133;DHT22;5106;50.926;7.080;2023-05-14T00:18:32;10.10;84.20
10133;DHT22;5106;50.926;7.080;2023-05-14T00:20:58;10.00;84.10
10133;DHT22;5106;50.926;7.080;2023-05-14T00:23:23;10.00;84.10
10133;DHT22;5106;50.926;7.080;2023-05-14T00:25:49;10.00;84.10
10133;DHT22;5106;50.926;7.080;2023-05-14T00:28:15;9.90;84.20
10133;DHT22;5106;50.926;7.080;2023-05-14T00:30:40;9.90;84.30
10133;DHT22;5106;50.926;7.080;2023-05-14T00:33:06;9.90;84.30
10133;DHT22;5106;50.926;7.080;2023-05-14T00:35:32;9.90;84.30
10133;DHT22;5106;50.926;7.080;2023-05-14T00:38:01;9.90;84.40
10133;DHT22;5106;50.926;7.080;2023-05-14T00:40:27;9.90;84.10
10133;DHT22;5106;50.926;7.080;2023-05-14T00:42:54;9.80;84.00
10133;DHT22;5106;50.926;7.080;2023-05-14T00:45:20;9.70;84.10
10133;DHT22;5106;50.926;7.080;2023-05-14T00:47:46;9.70;84.30
10133;DHT22;5106;50.926;7.080;2023-05-14T00:50:13;9.70;84.40
10133;DHT22;5106;50.926;7.080;2023-05-14T00:52:40;9.70;84.30
10133;DHT22;5106;50.926;7.080;2023-05-14T00:55:06;9.60;84.20
10133;DHT22;5106;50.926;7.080;2023-05-14T00:57:33;9.60;84.30
10133;DHT22;5106;50.926;7.080;2023-05-14T00:59:59;9.50;84.30
10133;DHT22;5106;50.926;7.080;2023-05-14T01:02:25;9.50;84.30
10133;DHT22;5106;50.926;7.080;2023-05-14T01:04:51;9.50;84.40
10133;DHT22;5106;50.926;7.080;2023-05-14T01:07:38;9.60;84.50
10133;DHT22;5106;50.926;7.080;2023-05-14T01:15:28;9.60;84.60
10133;DHT22;5106;50.926;7.080;2023-05-14T01:18:06;9.60;84.40
10133;DHT22;5106;50.926;7.080;2023-05-14T01:20:32;9.60;84.40
10133;DHT22;5106;50.926;7.080;2023-05-14T01:22:58;9.60;84.30
10133;DHT22;5106;50.926;7.080;2023-05-14T01:25:24;9.50;84.20
10133;DHT22;5106;50.926;7.080;2023-05-14T01:28:16;9.50;84.20
10133;DHT22;5106;50.926;7.080;2023-05-14T01:30:56;9.50;84.10
10133;DHT22;5106;50.926;7.080;2023-05-14T01:33:25;9.40;84.30
10133;DHT22;5106;50.926;7.080;2023-05-14T01:35:53;9.40;84.30
10133;DHT22;5106;50.926;7.080;2023-05-14T01:38:19;9.40;84.30
10133;DHT22;5106;50.926;7.080;2023-05-14T01:40:46;9.40;84.30
10133;DHT22;5106;50.926;7.080;2023-05-14T01:43:14;9.40;84.40
10133;DHT22;5106;50.926;7.080;2023-05-14T01:45:40;9.40;84.40
10133;DHT22;5106;50.926;7.080;2023-05-14T01:48:06;9.40;84.30
10133;DHT22;5106;50.926;7.080;2023-05-14T01:50:32;9.40;84.30
10133;DHT22;5106;50.926;7.080;2023-05-14T01:52:57;9.40;84.20
10133;DHT22;5106;50.926;7.080;2023-05-14T01:55:23;9.30;84.10
10133;DHT22;5106;50.926;7.080;2023-05-14T01:57:50;9.30;84.20
10133;DHT22;5106;50.926;7.080;2023-05-14T02:00:16;9.30;84.30
10133;DHT22;5106;50.926;7.080;2023-05-14T02:02:41;9.30;84.30
10133;DHT22;5106;50.926;7.080;2023-05-14T02:05:08;9.20;84.20
10133;DHT22;5106;50.926;7.080;2023-05-14T02:07:34;9.10;84.10
10133;DHT22;5106;50.926;7.080;2023-05-14T02:10:00;8.90;84.20
10133;DHT22;5106;50.926;7.080;2023-05-14T02:12:25;8.90;84.30
10133;DHT22;5106;50.926;7.080;2023-05-14T02:14:51;8.90;84.40
10133;DHT22;5106;50.926;7.080;2023-05-14T02:17:17;8.90;84.60
10133;DHT22;5106;50.926;7.080;2023-05-14T02:19:43;9.00;84.60
10133;DHT22;5106;50.926;7.080;2023-05-14T02:22:09;9.00;84.50
10133;DHT22;5106;50.926;7.080;2023-05-14T02:24:34;8.90;84.40
10133;DHT22;5106;50.926;7.080;2023-05-14T02:27:00;8.90;84.50
10133;DHT22;5106;50.926;7.080;2023-05-14T02:29:26;8.90;84.50
10133;DHT22;5106;50.926;7.080;2023-05-14T02:31:52;8.90;84.50
10133;DHT22;5106;50.926;7.080;2023-05-14T02:34:17;8.90;84.40
10133;DHT22;5106;50.926;7.080;2023-05-14T02:36:43;8.90;84.60
10133;DHT22;5106;50.926;7.080;2023-05-14T02:39:09;8.90;84.60
10133;DHT22;5106;50.926;7.080;2023-05-14T02:41:35;8.90;84.50
10133;DHT22;5106;50.926;7.080;2023-05-14T02:44:00;8.80;84.50
10133;DHT22;5106;50.926;7.080;2023-05-14T02:46:26;8.70;84.00
10133;DHT22;5106;50.926;7.080;2023-05-14T02:48:51;8.60;84.20
10133;DHT22;5106;50.926;7.080;2023-05-14T02:51:19;8.60;84.30
10133;DHT22;5106;50.926;7.080;2023-05-14T02:53:44;8.60;84.50
10133;DHT22;5106;50.926;7.080;2023-05-14T02:56:10;8.60;84.30
10133;DHT22;5106;50.926;7.080;2023-05-14T02:58:36;8.50;84.30
10133;DHT22;5106;50.926;7.080;2023-05-14T03:01:01;8.50;84.50
10133;DHT22;5106;50.926;7.080;2023-05-14T03:03:28;8.50;84.60
10133;DHT22;5106;50.926;7.080;2023-05-14T03:05:54;8.50;84.50
10133;DHT22;5106;50.926;7.080;2023-05-14T03:08:19;8.50;84.50
10133;DHT22;5106;50.926;7.080;2023-05-14T03:10:45;8.50;84.50
10133;DHT22;5106;50.926;7.080;2023-05-14T03:13:10;8.50;84.50
10133;DHT22;5106;50.926;7.080;2023-05-14T03:15:36;8.50;84.50
10133;DHT22;5106;50.926;7.080;2023-05-14T03:18:02;8.40;84.40
10133;DHT22;5106;50.926;7.080;2023-05-14T03:20:27;8.30;84.40
10133;DHT22;5106;50.926;7.080;2023-05-14T03:22:53;8.30;84.40
10133;DHT22;5106;50.926;7.080;2023-05-14T03:25:20;8.30;84.60
10133;DHT22;5106;50.926;7.080;2023-05-14T03:27:46;8.30;84.70
10133;DHT22;5106;50.926;7.080;2023-05-14T03:30:11;8.30;84.80
10133;DHT22;5106;50.926;7.080;2023-05-14T03:32:37;8.30;84.80
10133;DHT22;5106;50.926;7.080;2023-05-14T03:35:03;8.30;84.40
10133;DHT22;5106;50.926;7.080;2023-05-14T03:37:29;8.30;84.40
10133;DHT22;5106;50.926;7.080;2023-05-14T03:39:54;8.30;84.40
10133;DHT22;5106;50.926;7.080;2023-05-14T03:42:20;8.30;84.40
10133;DHT22;5106;50.926;7.080;2023-05-14T03:44:45;8.20;84.40
10133;DHT22;5106;50.926;7.080;2023-05-14T03:47:11;8.20;84.40
10133;DHT22;5106;50.926;7.080;2023-05-14T03:49:36;8.10;84.50
10133;DHT22;5106;50.926;7.080;2023-05-14T03:52:02;8.10;84.60
10133;DHT22;5106;50.926;7.080;2023-05-14T03:54:28;8.00;84.40
10133;DHT22;5106;50.926;7.080;2023-05-14T03:56:53;8.00;84.60
10133;DHT22;5106;50.926;7.080;2023-05-14T03:59:19;8.00;84.70
10133;DHT22;5106;50.926;7.080;2023-05-14T04:01:44;8.00;84.70
10133;DHT22;5106;50.926;7.080;2023-05-14T04:04:10;8.00;84.80
10133;DHT22;5106;50.926;7.080;2023-05-14T04:06:36;8.00;84.80
10133;DHT22;5106;50.926;7.080;2023-05-14T04:09:02;8.00;85.00
10133;DHT22;5106;50.926;7.080;2023-05-14T04:11:28;8.00;84.90
10133;DHT22;5106;50.926;7.080;2023-05-14T04:13:53;7.90;84.70
10133;DHT22;5106;50.926;7.080;2023-05-14T04:16:19;7.90;84.70
10133;DHT22;5106;50.926;7.080;2023-05-14T04:18:46;7.90;84.70
10133;DHT22;5106;50.926;7.080;2023-05-14T04:21:11;7.90;84.90
10133;DHT22;5106;50.926;7.080;2023-05-14T04:23:37;7.90;84.90
10133;DHT22;5106;50.926;7.080;2023-05-14T04:26:03;7.90;84.90
10133;DHT22;5106;50.926;7.080;2023-05-14T04:28:29;7.90;84.90
10133;DHT22;5106;50.926;7.080;2023-05-14T04:30:55;7.90;84.80
10133;DHT22;5106;50.926;7.080;2023-05-14T04:33:21;7.90;84.90
10133;DHT22;5106;50.926;7.080;2023-05-14T04:35:46;8.00;85.00
10133;DHT22;5106;50.926;7.080;2023-05-14T04:38:12;8.00;85.10
10133;DHT22;5106;50.926;7.080;2023-05-14T04:40:39;8.00;85.10
10133;DHT22;5106;50.926;7.080;2023-05-14T04:43:05;8.00;85.10
10133;DHT22;5106;50.926;7.080;2023-05-14T04:45:32;8.00;85.10
10133;DHT22;5106;50.926;7.080;2023-05-14T04:47:58;8.00;85.20
10133;DHT22;5106;50.926;7.080;2023-05-14T04:50:24;8.10;85.20
10133;DHT22;5106;50.926;7.080;2023-05-14T04:52:49;8.10;85.20
10133;DHT22;5106;50.926;7.080;2023-05-14T04:55:15;8.10;85.20
10133;DHT22;5106;50.926;7.080;2023-05-14T04:57:41;8.20;85.30
10133;DHT22;5106;50.926;7.080;2023-05-14T05:00:07;8.20;85.30
10133;DHT22;5106;50.926;7.080;2023-05-14T05:02:34;8.30;85.40
10133;DHT22;5106;50.926;7.080;2023-05-14T05:05:00;8.30;85.40
10133;DHT22;5106;50.926;7.080;2023-05-14T05:07:25;8.40;85.40
10133;DHT22;5106;50.926;7.080;2023-05-14T05:09:51;8.40;85.40
10133;DHT22;5106;50.926;7.080;2023-05-14T05:12:17;8.40;85.30
10133;DHT22;5106;50.926;7.080;2023-05-14T05:14:42;8.50;85.30
10133;DHT22;5106;50.926;7.080;2023-05-14T05:17:08;8.50;85.50
10133;DHT22;5106;50.926;7.080;2023-05-14T05:19:33;8.60;85.50
10133;DHT22;5106;50.926;7.080;2023-05-14T05:21:59;8.60;85.50
10133;DHT22;5106;50.926;7.080;2023-05-14T05:24:25;8.60;85.60
10133;DHT22;5106;50.926;7.080;2023-05-14T05:26:50;8.70;85.60
10133;DHT22;5106;50.926;7.080;2023-05-14T05:29:17;8.70;85.60
10133;DHT22;5106;50.926;7.080;2023-05-14T05:31:43;8.80;85.70
10133;DHT22;5106;50.926;7.080;2023-05-14T05:34:08;8.80;85.80
10133;DHT22;5106;50.926;7.080;2023-05-14T05:36:34;8.90;85.70
10133;DHT22;5106;50.926;7.080;2023-05-14T05:38:59;8.90;85.70
10133;DHT22;5106;50.926;7.080;2023-05-14T05:41:25;8.90;85.70
10133;DHT22;5106;50.926;7.080;2023-05-14T05:43:51;9.00;85.90
10133;DHT22;5106;50.926;7.080;2023-05-14T05:46:17;9.10;85.80
10133;DHT22;5106;50.926;7.080;2023-05-14T05:48:43;9.20;85.90
10133;DHT22;5106;50.926;7.080;2023-05-14T05:51:08;9.30;86.00
10133;DHT22;5106;50.926;7.080;2023-05-14T05:53:34;9.40;86.10
10133;DHT22;5106;50.926;7.080;2023-05-14T05:55:59;9.50;86.20
10133;DHT22;5106;50.926;7.080;2023-05-14T05:58:25;9.60;86.10
10133;DHT22;5106;50.926;7.080;2023-05-14T06:00:50;9.70;86.30
10133;DHT22;5106;50.926;7.080;2023-05-14T06:03:18;9.80;86.20
10133;DHT22;5106;50.926;7.080;2023-05-14T06:05:43;9.90;86.30
10133;DHT22;5106;50.926;7.080;2023-05-14T06:08:09;10.00;86.30
10133;DHT22;5106;50.926;7.080;2023-05-14T06:10:34;10.10;86.40
10133;DHT22;5106;50.926;7.080;2023-05-14T06:13:01;10.20;86.40
10133;DHT22;5106;50.926;7.080;2023-05-14T06:15:27;10.30;86.40
10133;DHT22;5106;50.926;7.080;2023-05-14T06:17:52;10.40;86.40
10133;DHT22;5106;50.926;7.080;2023-05-14T06:20:18;10.50;86.10
10133;DHT22;5106;50.926;7.080;2023-05-14T06:22:44;10.60;86.10
10133;DHT22;5106;50.926;7.080;2023-05-14T06:25:10;10.60;86.00
10133;DHT22;5106;50.926;7.080;2023-05-14T06:27:36;10.70;86.00
10133;DHT22;5106;50.926;7.080;2023-05-14T06:30:01;10.70;85.90
10133;DHT22;5106;50.926;7.080;2023-05-14T06:32:27;10.80;85.90
10133;DHT22;5106;50.926;7.080;2023-05-14T06:34:53;10.90;86.00
10133;DHT22;5106;50.926;7.080;2023-05-14T06:37:29;10.90;85.90
10133;DHT22;5106;50.926;7.080;2023-05-14T06:39:58;10.90;85.60
10133;DHT22;5106;50.926;7.080;2023-05-14T06:42:23;10.90;85.10
10133;DHT22;5106;50.926;7.080;2023-05-14T06:44:49;11.00;84.80
10133;DHT22;5106;50.926;7.080;2023-05-14T06:47:15;11.00;84.60
10133;DHT22;5106;50.926;7.080;2023-05-14T06:49:40;11.10;84.50
10133;DHT22;5106;50.926;7.080;2023-05-14T06:52:06;11.20;84.60
10133;DHT22;5106;50.926;7.080;2023-05-14T06:54:32;11.20;84.50
10133;DHT22;5106;50.926;7.080;2023-05-14T06:56:58;11.30;84.60
10133;DHT22;5106;50.926;7.080;2023-05-14T06:59:24;11.40;84.60
10133;DHT22;5106;50.926;7.080;2023-05-14T07:01:49;11.50;84.70
10133;DHT22;5106;50.926;7.080;2023-05-14T07:04:15;11.60;84.20
10133;DHT22;5106;50.926;7.080;2023-05-14T07:06:40;11.70;83.60
10133;DHT22;5106;50.926;7.080;2023-05-14T07:09:06;11.70;83.50
10133;DHT22;5106;50.926;7.080;2023-05-14T07:11:32;11.80;83.60
10133;DHT22;5106;50.926;7.080;2023-05-14T07:13:58;11.90;83.70
10133;DHT22;5106;50.926;7.080;2023-05-14T07:16:24;12.00;83.70
10133;DHT22;5106;50.926;7.080;2023-05-14T07:18:54;12.20;83.40
10133;DHT22;5106;50.926;7.080;2023-05-14T07:21:20;12.30;82.80
10133;DHT22;5106;50.926;7.080;2023-05-14T07:23:45;12.40;82.70
10133;DHT22;5106;50.926;7.080;2023-05-14T07:26:11;12.40;82.80
10133;DHT22;5106;50.926;7.080;2023-05-14T07:28:36;12.50;82.80
10133;DHT22;5106;50.926;7.080;2023-05-14T07:31:02;12.70;82.70
10133;DHT22;5106;50.926;7.080;2023-05-14T07:33:33;12.80;82.70
10133;DHT22;5106;50.926;7.080;2023-05-14T07:36:00;13.00;82.70
10133;DHT22;5106;50.926;7.080;2023-05-14T07:38:26;13.10;82.10
10133;DHT22;5106;50.926;7.080;2023-05-14T07:40:51;13.20;81.90
10133;DHT22;5106;50.926;7.080;2023-05-14T07:43:17;13.30;82.00
10133;DHT22;5106;50.926;7.080;2023-05-14T07:46:21;13.40;81.80
10133;DHT22;5106;50.926;7.080;2023-05-14T07:58:20;14.00;81.20
10133;DHT22;5106;50.926;7.080;2023-05-14T08:00:54;14.10;81.20
10133;DHT22;5106;50.926;7.080;2023-05-14T08:03:21;14.30;81.20
10133;DHT22;5106;50.926;7.080;2023-05-14T08:05:46;14.40;80.70
10133;DHT22;5106;50.926;7.080;2023-05-14T08:08:12;14.60;79.10
10133;DHT22;5106;50.926;7.080;2023-05-14T08:10:38;14.70;79.40
10133;DHT22;5106;50.926;7.080;2023-05-14T08:13:04;14.70;78.70
10133;DHT22;5106;50.926;7.080;2023-05-14T08:15:30;14.80;78.20
10133;DHT22;5106;50.926;7.080;2023-05-14T08:17:55;14.90;78.20
10133;DHT22;5106;50.926;7.080;2023-05-14T08:20:29;15.00;78.10
10133;DHT22;5106;50.926;7.080;2023-05-14T08:22:56;15.10;78.00
10133;DHT22;5106;50.926;7.080;2023-05-14T08:25:24;15.20;77.20
10133;DHT22;5106;50.926;7.080;2023-05-14T08:27:50;15.30;76.50
10133;DHT22;5106;50.926;7.080;2023-05-14T08:30:16;15.50;76.20
10133;DHT22;5106;50.926;7.080;2023-05-14T08:32:42;15.60;75.40
10133;DHT22;5106;50.926;7.080;2023-05-14T08:35:08;15.60;75.60
10133;DHT22;5106;50.926;7.080;2023-05-14T08:37:33;15.70;76.30
10133;DHT22;5106;50.926;7.080;2023-05-14T08:39:59;15.80;76.00
10133;DHT22;5106;50.926;7.080;2023-05-14T08:42:25;15.90;74.80
10133;DHT22;5106;50.926;7.080;2023-05-14T08:44:57;16.00;74.20
10133;DHT22;5106;50.926;7.080;2023-05-14T08:47:24;16.10;74.10
10133;DHT22;5106;50.926;7.080;2023-05-14T08:50:16;16.20;73.70
10133;DHT22;5106;50.926;7.080;2023-05-14T08:52:43;16.40;74.00
10133;DHT22;5106;50.926;7.080;2023-05-14T08:55:09;16.50;72.90
10133;DHT22;5106;50.926;7.080;2023-05-14T08:57:36;16.60;72.70
10133;DHT22;5106;50.926;7.080;2023-05-14T09:00:03;16.70;71.90
10133;DHT22;5106;50.926;7.080;2023-05-14T09:02:40;16.80;72.20
10133;DHT22;5106;50.926;7.080;2023-05-14T09:05:06;17.00;73.00
10133;DHT22;5106;50.926;7.080;2023-05-14T09:07:33;17.10;73.40
10133;DHT22;5106;50.926;7.080;2023-05-14T09:10:00;17.30;73.30
10133;DHT22;5106;50.926;7.080;2023-05-14T09:12:26;17.50;73.60
10133;DHT22;5106;50.926;7.080;2023-05-14T09:14:52;17.50;71.20
10133;DHT22;5106;50.926;7.080;2023-05-14T09:17:18;17.60;72.00
10133;DHT22;5106;50.926;7.080;2023-05-14T09:19:45;17.60;71.20
10133;DHT22;5106;50.926;7.080;2023-05-14T09:22:15;17.70;71.40
10133;DHT22;5106;50.926;7.080;2023-05-14T09:24:40;17.80;71.60
10133;DHT22;5106;50.926;7.080;2023-05-14T09:27:07;18.00;71.10
10133;DHT22;5106;50.926;7.080;2023-05-14T09:29:33;18.10;72.60
10133;DHT22;5106;50.926;7.080;2023-05-14T09:31:59;18.20;70.20
10133;DHT22;5106;50.926;7.080;2023-05-14T09:34:33;18.30;68.20
10133;DHT22;5106;50.926;7.080;2023-05-14T09:37:00;18.30;68.80
10133;DHT22;5106;50.926;7.080;2023-05-14T09:39:26;18.30;70.40
10133;DHT22;5106;50.926;7.080;2023-05-14T09:41:52;18.40;69.30
10133;DHT22;5106;50.926;7.080;2023-05-14T09:44:19;18.40;68.10
10133;DHT22;5106;50.926;7.080;2023-05-14T09:46:48;18.50;68.70
10133;DHT22;5106;50.926;7.080;2023-05-14T09:49:34;18.40;66.50
10133;DHT22;5106;50.926;7.080;2023-05-14T09:52:00;18.40;69.00
10133;DHT22;5106;50.926;7.080;2023-05-14T09:54:28;18.40;68.60
10133;DHT22;5106;50.926;7.080;2023-05-14T09:57:00;18.50;68.00
10133;DHT22;5106;50.926;7.080;2023-05-14T09:59:33;18.60;66.40
10133;DHT22;5106;50.926;7.080;2023-05-14T10:01:59;18.70;66.10
10133;DHT22;5106;50.926;7.080;2023-05-14T10:04:25;18.80;68.60
10133;DHT22;5106;50.926;7.080;2023-05-14T10:06:52;18.70;65.40
10133;DHT22;5106;50.926;7.080;2023-05-14T10:09:20;18.80;67.10
10133;DHT22;5106;50.926;7.080;2023-05-14T10:11:52;18.80;66.40
10133;DHT22;5106;50.926;7.080;2023-05-14T10:14:27;18.90;68.00
10133;DHT22;5106;50.926;7.080;2023-05-14T10:16:55;19.00;64.50
10133;DHT22;5106;50.926;7.080;2023-05-14T10:19:24;19.00;64.10
10133;DHT22;5106;50.926;7.080;2023-05-14T10:22:02;19.20;65.80
10133;DHT22;5106;50.926;7.080;2023-05-14T10:24:28;19.20;66.10
10133;DHT22;5106;50.926;7.080;2023-05-14T10:26:55;19.30;66.20
10133;DHT22;5106;50.926;7.080;2023-05-14T10:29:33;19.50;66.20
10133;DHT22;5106;50.926;7.080;2023-05-14T10:32:06;19.80;66.20
10133;DHT22;5106;50.926;7.080;2023-05-14T10:34:37;20.10;66.50
10133;DHT22;5106;50.926;7.080;2023-05-14T10:37:08;20.20;65.20
10133;DHT22;5106;50.926;7.080;2023-05-14T10:39:50;20.10;65.80
10133;DHT22;5106;50.926;7.080;2023-05-14T10:42:25;20.10;66.20
10133;DHT22;5106;50.926;7.080;2023-05-14T10:45:01;19.80;63.50
10133;DHT22;5106;50.926;7.080;2023-05-14T10:47:31;19.70;65.70
10133;DHT22;5106;50.926;7.080;2023-05-14T10:50:01;19.50;64.20
10133;DHT22;5106;50.926;7.080;2023-05-14T10:52:28;19.40;64.40
10133;DHT22;5106;50.926;7.080;2023-05-14T10:54:58;19.30;64.20
10133;DHT22;5106;50.926;7.080;2023-05-14T10:57:29;19.20;67.10
10133;DHT22;5106;50.926;7.080;2023-05-14T10:59:56;19.30;68.40
10133;DHT22;5106;50.926;7.080;2023-05-14T11:02:25;19.30;67.30
10133;DHT22;5106;50.926;7.080;2023-05-14T11:05:03;19.40;66.20
10133;DHT22;5106;50.926;7.080;2023-05-14T11:07:31;19.30;64.80
10133;DHT22;5106;50.926;7.080;2023-05-14T11:10:23;19.30;65.80
10133;DHT22;5106;50.926;7.080;2023-05-14T11:12:56;19.30;66.60
10133;DHT22;5106;50.926;7.080;2023-05-14T11:15:24;19.20;66.90
10133;DHT22;5106;50.926;7.080;2023-05-14T11:17:51;19.20;68.20
10133;DHT22;5106;50.926;7.080;2023-05-14T11:20:17;19.20;68.10
10133;DHT22;5106;50.926;7.080;2023-05-14T11:22:44;19.20;67.80
10133;DHT22;5106;50.926;7.080;2023-05-14T11:25:11;19.30;68.10
10133;DHT22;5106;50.926;7.080;2023-05-14T11:27:42;19.30;64.80
10133;DHT22;5106;50.926;7.080;2023-05-14T11:30:17;19.30;66.00
10133;DHT22;5106;50.926;7.080;2023-05-14T11:32:47;19.30;66.40
10133;DHT22;5106;50.926;7.080;2023-05-14T11:35:13;19.30;69.30
10133;DHT22;5106;50.926;7.080;2023-05-14T11:37:40;19.30;68.30
10133;DHT22;5106;50.926;7.080;2023-05-14T11:40:08;19.30;67.90
10133;DHT22;5106;50.926;7.080;2023-05-14T11:42:35;19.20;66.50
10133;DHT22;5106;50.926;7.080;2023-05-14T11:45:01;19.20;68.00
10133;DHT22;5106;50.926;7.080;2023-05-14T11:47:28;19.10;68.50
10133;DHT22;5106;50.926;7.080;2023-05-14T11:49:54;19.20;68.10
10133;DHT22;5106;50.926;7.080;2023-05-14T11:52:19;19.20;67.30
10133;DHT22;5106;50.926;7.080;2023-05-14T11:54:46;19.20;66.20
10133;DHT22;5106;50.926;7.080;2023-05-14T11:57:17;19.30;65.80
10133;DHT22;5106;50.926;7.080;2023-05-14T11:59:43;19.30;66.10
10133;DHT22;5106;50.926;7.080;2023-05-14T12:02:11;19.40;66.20
10133;DHT22;5106;50.926;7.080;2023-05-14T12:04:38;19.50;65.80
10133;DHT22;5106;50.926;7.080;2023-05-14T12:07:08;19.60;65.90
10133;DHT22;5106;50.926;7.080;2023-05-14T12:09:36;19.70;65.50
10133;DHT22;5106;50.926;7.080;2023-05-14T12:12:09;19.90;65.00
10133;DHT22;5106;50.926;7.080;2023-05-14T12:14:40;20.00;65.30
10133;DHT22;5106;50.926;7.080;2023-05-14T12:17:22;20.10;60.00
10133;DHT22;5106;50.926;7.080;2023-05-14T12:19:51;20.30;64.50
10133;DHT22;5106;50.926;7.080;2023-05-14T12:22:19;20.40;63.30
10133;DHT22;5106;50.926;7.080;2023-05-14T12:24:55;20.70;65.30
10133;DHT22;5106;50.926;7.080;2023-05-14T12:27:22;20.90;63.30
10133;DHT22;5106;50.926;7.080;2023-05-14T12:30:02;21.00;58.90
10133;DHT22;5106;50.926;7.080;2023-05-14T12:32:31;21.00;62.30
10133;DHT22;5106;50.926;7.080;2023-05-14T12:34:56;20.90;59.80
10133;DHT22;5106;50.926;7.080;2023-05-14T12:37:22;20.80;61.60
10133;DHT22;5106;50.926;7.080;2023-05-14T12:39:47;20.70;60.80
10133;DHT22;5106;50.926;7.080;2023-05-14T12:42:20;20.70;64.00
10133;DHT22;5106;50.926;7.080;2023-05-14T12:44:50;20.60;61.60
10133;DHT22;5106;50.926;7.080;2023-05-14T12:47:18;20.50;61.00
10133;DHT22;5106;50.926;7.080;2023-05-14T12:49:43;20.60;61.10
10133;DHT22;5106;50.926;7.080;2023-05-14T12:52:09;20.60;61.90
10133;DHT22;5106;50.926;7.080;2023-05-14T12:54:34;20.60;61.20
10133;DHT22;5106;50.926;7.080;2023-05-14T12:57:07;20.60;61.80
10133;DHT22;5106;50.926;7.080;2023-05-14T12:59:36;20.60;61.80
10133;DHT22;5106;50.926;7.080;2023-05-14T13:02:01;20.50;62.30
10133;DHT22;5106;50.926;7.080;2023-05-14T13:04:27;20.50;60.90
10133;DHT22;5106;50.926;7.080;2023-05-14T13:06:52;20.50;59.10
10133;DHT22;5106;50.926;7.080;2023-05-14T13:09:18;20.40;58.30
10133;DHT22;5106;50.926;7.080;2023-05-14T13:11:43;20.40;60.50
10133;DHT22;5106;50.926;7.080;2023-05-14T13:14:09;20.40;67.00
10133;DHT22;5106;50.926;7.080;2023-05-14T13:16:35;20.60;61.80
10133;DHT22;5106;50.926;7.080;2023-05-14T13:19:00;20.60;60.50
10133;DHT22;5106;50.926;7.080;2023-05-14T13:21:26;20.80;62.10
10133;DHT22;5106;50.926;7.080;2023-05-14T13:23:51;20.90;59.10
10133;DHT22;5106;50.926;7.080;2023-05-14T13:26:17;20.90;58.10
10133;DHT22;5106;50.926;7.080;2023-05-14T13:28:42;21.00;60.70
10133;DHT22;5106;50.926;7.080;2023-05-14T13:31:10;21.00;58.70
10133;DHT22;5106;50.926;7.080;2023-05-14T13:33:39;20.90;58.70
10133;DHT22;5106;50.926;7.080;2023-05-14T13:36:05;20.90;62.00
10133;DHT22;5106;50.926;7.080;2023-05-14T13:38:31;20.90;62.60
10133;DHT22;5106;50.926;7.080;2023-05-14T13:40:57;20.90;57.50
10133;DHT22;5106;50.926;7.080;2023-05-14T13:43:35;20.80;57.70
10133;DHT22;5106;50.926;7.080;2023-05-14T13:46:02;20.70;56.50
10133;DHT22;5106;50.926;7.080;2023-05-14T13:48:28;20.70;56.20
10133;DHT22;5106;50.926;7.080;2023-05-14T13:50:55;20.70;57.10
10133;DHT22;5106;50.926;7.080;2023-05-14T13:53:22;20.70;57.10
10133;DHT22;5106;50.926;7.080;2023-05-14T13:55:48;20.60;58.30
10133;DHT22;5106;50.926;7.080;2023-05-14T13:58:14;20.70;58.30
10133;DHT22;5106;50.926;7.080;2023-05-14T14:00:40;20.90;59.40
10133;DHT22;5106;50.926;7.080;2023-05-14T14:03:06;21.00;51.20
10133;DHT22;5106;50.926;7.080;2023-05-14T14:05:33;21.10;50.00
10133;DHT22;5106;50.926;7.080;2023-05-14T14:07:59;21.30;53.60
10133;DHT22;5106;50.926;7.080;2023-05-14T14:10:24;21.40;55.30
10133;DHT22;5106;50.926;7.080;2023-05-14T14:12:50;21.40;55.30
10133;DHT22;5106;50.926;7.080;2023-05-14T14:15:16;21.20;53.80
10133;DHT22;5106;50.926;7.080;2023-05-14T14:17:42;21.10;58.70
10133;DHT22;5106;50.926;7.080;2023-05-14T14:20:08;21.00;56.20
10133;DHT22;5106;50.926;7.080;2023-05-14T14:22:34;21.00;55.70
10133;DHT22;5106;50.926;7.080;2023-05-14T14:25:00;21.00;55.50
10133;DHT22;5106;50.926;7.080;2023-05-14T14:27:26;20.80;54.40
10133;DHT22;5106;50.926;7.080;2023-05-14T14:29:51;20.70;54.70
10133;DHT22;5106;50.926;7.080;2023-05-14T14:32:17;20.70;55.80
10133;DHT22;5106;50.926;7.080;2023-05-14T14:34:43;20.70;56.10
10133;DHT22;5106;50.926;7.080;2023-05-14T14:37:08;20.80;56.40
10133;DHT22;5106;50.926;7.080;2023-05-14T14:39:34;20.90;56.00
10133;DHT22;5106;50.926;7.080;2023-05-14T14:41:59;21.00;54.20
10133;DHT22;5106;50.926;7.080;2023-05-14T14:44:25;21.20;54.10
10133;DHT22;5106;50.926;7.080;2023-05-14T14:46:51;21.30;55.20
10133;DHT22;5106;50.926;7.080;2023-05-14T14:49:16;21.50;54.50
10133;DHT22;5106;50.926;7.080;2023-05-14T14:51:42;21.60;57.50
10133;DHT22;5106;50.926;7.080;2023-05-14T14:54:07;21.70;53.40
10133;DHT22;5106;50.926;7.080;2023-05-14T14:56:33;21.70;53.20
10133;DHT22;5106;50.926;7.080;2023-05-14T14:58:59;21.90;57.90
10133;DHT22;5106;50.926;7.080;2023-05-14T15:01:25;21.90;55.60
10133;DHT22;5106;50.926;7.080;2023-05-14T15:03:50;21.90;56.40
10133;DHT22;5106;50.926;7.080;2023-05-14T15:06:16;21.90;56.50
10133;DHT22;5106;50.926;7.080;2023-05-14T15:08:42;21.80;56.00
10133;DHT22;5106;50.926;7.080;2023-05-14T15:11:07;21.70;57.50
10133;DHT22;5106;50.926;7.080;2023-05-14T15:13:33;21.60;59.80
10133;DHT22;5106;50.926;7.080;2023-05-14T15:15:59;21.40;55.20
10133;DHT22;5106;50.926;7.080;2023-05-14T15:18:24;21.30;55.20
10133;DHT22;5106;50.926;7.080;2023-05-14T15:20:50;21.20;57.40
10133;DHT22;5106;50.926;7.080;2023-05-14T15:23:17;21.10;57.60
10133;DHT22;5106;50.926;7.080;2023-05-14T15:25:43;21.10;59.00
10133;DHT22;5106;50.926;7.080;2023-05-14T15:28:09;21.10;58.60
10133;DHT22;5106;50.926;7.080;2023-05-14T15:30:35;21.20;60.30
10133;DHT22;5106;50.926;7.080;2023-05-14T15:33:00;21.40;60.50
10133;DHT22;5106;50.926;7.080;2023-05-14T15:35:26;21.60;57.10
10133;DHT22;5106;50.926;7.080;2023-05-14T15:37:54;21.80;56.30
10133;DHT22;5106;50.926;7.080;2023-05-14T15:40:21;22.00;55.00
10133;DHT22;5106;50.926;7.080;2023-05-14T15:42:47;22.20;56.40
10133;DHT22;5106;50.926;7.080;2023-05-14T15:45:12;22.30;54.60
10133;DHT22;5106;50.926;7.080;2023-05-14T15:47:39;22.50;54.80
10133;DHT22;5106;50.926;7.080;2023-05-14T15:50:05;22.50;54.20
10133;DHT22;5106;50.926;7.080;2023-05-14T15:52:31;22.50;55.10
10133;DHT22;5106;50.926;7.080;2023-05-14T15:54:57;22.40;54.80
10133;DHT22;5106;50.926;7.080;2023-05-14T15:57:23;22.30;56.10
10133;DHT22;5106;50.926;7.080;2023-05-14T15:59:50;22.40;57.20
10133;DHT22;5106;50.926;7.080;2023-05-14T16:02:15;22.60;56.10
10133;DHT22;5106;50.926;7.080;2023-05-14T16:04:41;22.60;56.90
10133;DHT22;5106;50.926;7.080;2023-05-14T16:07:09;22.50;55.50